KAXS/AXS METAR and TAF weather

Enter ICAO airport designator
Station Type Date Time Source
KAXS METAR 2019/06/26 09:55 UTC NOAA

KAXS 260955Z AUTO 13006KT 10SM CLR 24/20 A3002 RMK AO2 T02430200


Station Type Date Time Source
KAXS Decoded METAR 2019/06/26 09:55 UTC NOAA

Altus, Altus/Quartz Mountain Regional Airport, OK, United States (KAXS) 34-41-55N 099-20-17W
Jun 26, 2019 - 05:55 AM EDT / 2019.06.26 0955 UTC
Wind: from the SE (130 degrees) at 7 MPH (6 KT):0
Visibility: 10 mile(s):0
Sky conditions: clear
Temperature: 75.7 F (24.3 C)
Dew Point: 68.0 F (20.0 C)
Relative Humidity: 76%
Pressure (altimeter): 30.02 in. Hg (1016 hPa)
ob: KAXS 260955Z AUTO 13006KT 10SM CLR 24/20 A3002 RMK AO2 T02430200
cycle: 10

Station Type Date Time Source
KAXS TAF UTC NOAA

Error!

Example: see airport list